Terminal Aerodrome Forecast
Issued by NWS Bismarck, ND

Home | Current Version | Previous Version | Text Only | Print | Product List | Glossary Off
Versions: 1 2 3 4 5 6 7 8 9 10 11 12

646
FTUS43 KBIS 150521
TAFBIS
TAF
KBIS 150521Z 1506/1606 VRB03KT P6SM SKC
     FM151600 23007KT P6SM SKC=

USA.gov is the U.S. government's official web portal to all federal, state and local government web resources and services.